createdAt,value
2019-05-23T00:02:27.160Z,7.30
2019-05-23T00:07:30.369Z,7.30
2019-05-23T00:12:44.359Z,7.20
2019-05-23T00:17:45.676Z,7.00
2019-05-23T00:22:47.176Z,6.90
2019-05-23T00:27:49.059Z,6.90
2019-05-23T00:32:53.490Z,6.90
2019-05-23T00:37:55.081Z,6.90
2019-05-23T00:42:57.599Z,7.30
2019-05-23T00:47:58.802Z,8.00
2019-05-23T00:53:00.284Z,7.30
2019-05-23T00:58:01.579Z,6.80
2019-05-23T01:03:04.675Z,6.80
2019-05-23T01:08:06.765Z,6.90
2019-05-23T01:13:09.874Z,6.90
2019-05-23T01:18:12.991Z,7.00
2019-05-23T01:23:15.998Z,6.90
2019-05-23T01:28:17.193Z,6.90
2019-05-23T01:33:18.688Z,7.40
2019-05-23T01:38:20.483Z,7.30
2019-05-23T01:43:22.721Z,6.60
2019-05-23T01:48:25.317Z,6.50
2019-05-23T01:53:27.099Z,7.10
2019-05-23T01:58:29.211Z,6.30
2019-05-23T02:03:31.112Z,6.20
2019-05-23T02:08:33.805Z,6.10
2019-05-23T02:13:35.705Z,6.20
2019-05-23T02:18:37.114Z,6.60
2019-05-23T02:23:39.528Z,6.30
2019-05-23T02:28:40.933Z,6.20
2019-05-23T02:33:42.928Z,6.20
2019-05-23T02:38:52.195Z,6.80
2019-05-23T02:43:56.490Z,6.60
2019-05-23T02:48:59.495Z,6.20
2019-05-23T02:54:02.336Z,6.50
2019-05-23T02:59:23.503Z,5.90
2019-05-23T03:04:28.495Z,5.60
2019-05-23T03:09:33.615Z,5.60
2019-05-23T03:14:37.319Z,5.40
2019-05-23T03:19:52.215Z,5.40
2019-05-23T03:24:56.918Z,5.30
2019-05-23T03:29:58.725Z,5.40
2019-05-23T03:35:10.969Z,5.70
2019-05-23T03:40:12.984Z,5.10
2019-05-23T03:45:14.513Z,5.00
2019-05-23T03:50:15.992Z,5.00
2019-05-23T03:55:18.493Z,5.10
2019-05-23T04:00:24.151Z,5.20
2019-05-23T04:05:25.758Z,5.40
2019-05-23T04:10:27.040Z,5.40
2019-05-23T04:15:28.739Z,5.40
2019-05-23T04:20:30.847Z,5.40
2019-05-23T04:25:32.385Z,5.40
2019-05-23T04:30:35.350Z,5.50
2019-05-23T04:35:36.751Z,5.60
2019-05-23T04:40:38.542Z,5.80
2019-05-23T04:45:41.340Z,6.00
2019-05-23T04:50:42.691Z,6.20
2019-05-23T04:55:45.130Z,6.30
2019-05-23T05:00:46.383Z,6.50
2019-05-23T05:05:48.136Z,6.70
2019-05-23T05:10:49.223Z,6.90
2019-05-23T05:15:51.005Z,7.20
2019-05-23T05:20:52.556Z,7.40
2019-05-23T05:25:53.656Z,7.70
2019-05-23T05:30:54.749Z,7.90
2019-05-23T05:35:55.956Z,8.20
2019-05-23T05:40:57.460Z,8.40
2019-05-23T05:45:59.138Z,8.70
2019-05-23T05:51:00.441Z,8.90
2019-05-23T05:56:01.546Z,9.20
2019-05-23T06:01:06.596Z,9.40
2019-05-23T06:06:12.805Z,9.60
2019-05-23T06:11:15.617Z,9.90
2019-05-23T06:16:16.932Z,10.10
2019-05-23T06:21:25.778Z,10.40
2019-05-23T06:26:27.454Z,12.30
2019-05-23T06:31:29.079Z,10.10
2019-05-23T06:36:30.875Z,11.10
2019-05-23T06:41:32.600Z,11.30
2019-05-23T06:46:34.087Z,11.30
2019-05-23T06:51:35.799Z,11.50
2019-05-23T06:56:37.044Z,11.60
2019-05-23T07:01:39.035Z,11.90
2019-05-23T07:06:40.192Z,12.20
2019-05-23T07:11:41.398Z,12.60
2019-05-23T07:16:42.479Z,12.80
2019-05-23T07:21:43.842Z,13.00
2019-05-23T07:26:45.623Z,13.40
2019-05-23T07:31:47.211Z,13.70
2019-05-23T07:36:48.707Z,14.10
2019-05-23T07:41:50.874Z,14.20
2019-05-23T07:46:52.537Z,14.70
2019-05-23T07:51:53.629Z,15.10
2019-05-23T07:56:54.811Z,15.70
2019-05-23T08:02:04.435Z,16.00
2019-05-23T08:07:06.765Z,16.30
2019-05-23T08:12:07.861Z,18.30
2019-05-23T08:17:09.461Z,16.80
2019-05-23T08:22:10.882Z,17.10
2019-05-23T08:27:12.203Z,17.70
2019-05-23T08:32:15.335Z,17.90
2019-05-23T08:37:16.833Z,18.40
2019-05-23T08:42:19.466Z,18.30
2019-05-23T08:47:21.982Z,17.80
2019-05-23T08:52:23.360Z,18.10
2019-05-23T08:57:24.452Z,18.30
2019-05-23T09:02:26.873Z,18.90
2019-05-23T09:07:27.960Z,19.60
2019-05-23T09:12:29.260Z,20.20
2019-05-23T09:17:30.349Z,20.10
2019-05-23T09:22:31.656Z,20.60
2019-05-23T09:27:34.658Z,21.00
2019-05-23T09:32:36.287Z,21.40
2019-05-23T09:37:37.587Z,21.60
2019-05-23T09:42:38.905Z,22.20
2019-05-23T09:47:39.991Z,22.20
2019-05-23T09:52:41.312Z,22.10
2019-05-23T09:57:42.739Z,22.50
2019-05-23T10:02:43.832Z,22.50
2019-05-23T10:07:45.037Z,23.50
2019-05-23T10:12:46.156Z,23.90
2019-05-23T10:17:47.348Z,24.60
2019-05-23T10:22:48.458Z,24.40
2019-05-23T10:27:49.556Z,24.90
2019-05-23T10:32:50.845Z,25.60
2019-05-23T10:37:52.059Z,25.80
2019-05-23T10:42:53.400Z,26.20
2019-05-23T10:47:54.894Z,26.20
2019-05-23T10:52:56.111Z,26.10
2019-05-23T10:57:57.287Z,26.50
2019-05-23T11:02:59.195Z,25.30
2019-05-23T11:08:02.128Z,25.50
2019-05-23T11:13:03.641Z,25.80
2019-05-23T11:18:05.632Z,26.90
2019-05-23T11:23:06.741Z,27.90
2019-05-23T11:28:07.962Z,27.60
2019-05-23T11:33:11.774Z,28.00
2019-05-23T11:38:13.471Z,27.90
2019-05-23T11:43:14.900Z,28.50
2019-05-23T11:48:16.895Z,29.10
2019-05-23T11:53:18.427Z,29.50
2019-05-23T11:58:19.640Z,29.50
2019-05-23T12:03:21.015Z,30.50
2019-05-23T12:08:22.221Z,31.60
2019-05-23T12:13:23.304Z,31.40
2019-05-23T12:18:25.095Z,30.80
2019-05-23T12:23:26.330Z,31.50
2019-05-23T12:28:29.339Z,32.00
2019-05-23T12:33:30.648Z,31.70
2019-05-23T12:38:31.974Z,31.70
2019-05-23T12:43:33.274Z,32.80
2019-05-23T12:48:45.409Z,32.40
2019-05-23T12:53:46.812Z,32.80
2019-05-23T12:58:48.211Z,33.30
2019-05-23T13:03:49.412Z,33.10
2019-05-23T13:08:50.692Z,34.10
2019-05-23T13:13:51.932Z,34.50
2019-05-23T13:18:53.224Z,35.00
2019-05-23T13:23:54.453Z,35.30
2019-05-23T13:28:55.568Z,34.50
2019-05-23T13:33:56.761Z,34.00
2019-05-23T13:38:58.069Z,35.20
2019-05-23T13:43:59.180Z,35.70
2019-05-23T13:49:00.300Z,35.20
2019-05-23T13:54:01.392Z,36.30
2019-05-23T13:59:02.713Z,36.30
2019-05-23T14:04:04.607Z,35.40
2019-05-23T14:09:06.235Z,35.30
2019-05-23T14:14:08.113Z,35.90
2019-05-23T14:19:09.983Z,37.00
2019-05-23T14:24:11.218Z,35.90
2019-05-23T14:29:12.845Z,36.50
2019-05-23T14:34:14.137Z,36.80
2019-05-23T14:39:20.138Z,35.90
2019-05-23T14:44:21.539Z,34.70
2019-05-23T14:49:27.303Z,34.40
2019-05-23T14:54:33.471Z,35.90
2019-05-23T14:59:36.410Z,35.00
2019-05-23T15:04:37.768Z,36.00
2019-05-23T15:09:38.862Z,36.00
2019-05-23T15:14:40.262Z,35.50
2019-05-23T15:19:45.119Z,35.00
2019-05-23T15:24:44.740Z,34.40
2019-05-23T15:29:46.026Z,35.40
2019-05-23T15:34:47.191Z,35.20
2019-05-23T15:39:48.409Z,36.10
2019-05-23T15:44:49.637Z,34.90
2019-05-23T15:49:52.766Z,35.50
2019-05-23T15:54:58.702Z,34.90
2019-05-23T16:00:07.489Z,35.50
2019-05-23T16:05:11.020Z,35.70
2019-05-23T16:10:13.127Z,36.70
2019-05-23T16:15:14.437Z,36.70
2019-05-23T16:20:16.125Z,35.80
2019-05-23T16:25:17.440Z,35.10
2019-05-23T16:30:18.889Z,35.10
2019-05-23T16:35:20.305Z,35.80
2019-05-23T16:40:21.539Z,34.10
2019-05-23T16:45:22.707Z,33.60
2019-05-23T16:50:24.001Z,33.60
2019-05-23T16:55:29.744Z,32.80
2019-05-23T17:00:49.856Z,32.60
2019-05-23T17:05:55.599Z,31.60
2019-05-23T17:10:58.732Z,30.80
2019-05-23T17:16:10.891Z,30.40
2019-05-23T17:21:22.932Z,30.40
2019-05-23T17:26:37.905Z,31.10
2019-05-23T17:31:40.943Z,30.30
2019-05-23T17:36:42.136Z,29.20
2019-05-23T17:41:43.292Z,28.80
2019-05-23T17:46:44.621Z,26.60
2019-05-23T17:51:45.861Z,24.80
2019-05-23T17:56:46.973Z,24.00
2019-05-23T18:01:49.070Z,23.80
2019-05-23T18:06:50.484Z,23.10
2019-05-23T18:11:55.380Z,22.70
2019-05-23T18:16:55.517Z,22.30
2019-05-23T18:21:57.060Z,21.80
2019-05-23T18:26:58.392Z,21.00
2019-05-23T18:31:59.770Z,20.50
2019-05-23T18:37:01.088Z,19.80
2019-05-23T18:42:03.214Z,19.10
2019-05-23T18:47:09.015Z,18.50
2019-05-23T18:52:10.930Z,18.20
2019-05-23T18:57:12.235Z,17.60
2019-05-23T19:02:14.196Z,17.00
2019-05-23T19:07:15.800Z,16.50
2019-05-23T19:12:17.014Z,16.10
2019-05-23T19:17:18.742Z,15.80
2019-05-23T19:22:20.765Z,15.40
2019-05-23T19:27:22.011Z,15.00
2019-05-23T19:32:23.192Z,14.70
2019-05-23T19:37:24.512Z,13.40
2019-05-23T19:42:25.679Z,14.40
2019-05-23T19:47:27.628Z,14.70
2019-05-23T19:52:28.748Z,13.90
2019-05-23T19:57:31.076Z,13.70
2019-05-23T20:02:49.824Z,13.60
2019-05-23T20:07:51.342Z,13.40
2019-05-23T20:12:52.572Z,13.20
2019-05-23T20:17:54.115Z,13.00
2019-05-23T20:22:55.360Z,12.80
2019-05-23T20:27:56.624Z,12.70
2019-05-23T20:32:57.931Z,12.60
2019-05-23T20:37:59.068Z,12.30
2019-05-23T20:43:02.542Z,12.20
2019-05-23T20:48:07.599Z,12.00
2019-05-23T20:53:08.769Z,11.90
2019-05-23T20:58:10.207Z,11.70
2019-05-23T21:03:11.695Z,11.50
2019-05-23T21:08:12.938Z,11.40
2019-05-23T21:13:14.680Z,11.30
2019-05-23T21:18:15.930Z,11.20
2019-05-23T21:23:17.144Z,11.10
2019-05-23T21:28:18.307Z,11.10
2019-05-23T21:33:19.439Z,11.00
2019-05-23T21:38:20.539Z,10.90
2019-05-23T21:43:22.036Z,10.90
2019-05-23T21:48:23.259Z,11.00
2019-05-23T21:53:24.459Z,11.00
2019-05-23T21:58:25.935Z,11.00
2019-05-23T22:03:28.477Z,11.00
2019-05-23T22:08:29.687Z,11.00
2019-05-23T22:13:31.204Z,11.00
2019-05-23T22:18:32.604Z,11.00
2019-05-23T22:23:34.684Z,11.10
2019-05-23T22:28:36.281Z,11.10
2019-05-23T22:33:39.448Z,11.20
2019-05-23T22:38:40.540Z,11.20
2019-05-23T22:43:41.736Z,11.20
2019-05-23T22:48:42.834Z,11.30
2019-05-23T22:53:43.924Z,11.20
2019-05-23T22:58:45.007Z,11.30
2019-05-23T23:03:46.296Z,11.30
2019-05-23T23:08:47.799Z,11.40
2019-05-23T23:13:48.900Z,11.40
2019-05-23T23:18:50.903Z,11.40
2019-05-23T23:23:51.999Z,11.20
2019-05-23T23:28:53.210Z,11.10
2019-05-23T23:33:54.320Z,11.10
2019-05-23T23:38:55.429Z,11.00
2019-05-23T23:43:59.647Z,10.90
2019-05-23T23:49:18.351Z,11.00
2019-05-23T23:54:37.990Z,10.80
2019-05-23T23:59:39.103Z,10.60
